sensor_id;sensor_type;location;lat;lon;timestamp;pressure;altitude;pressure_sealevel;temperature;humidity
59274;BME280;45044;41.572;24.730;2024-01-25T00:00:48;91575.25;;;-1.99;100.00
59274;BME280;45044;41.572;24.730;2024-01-25T00:03:15;91575.72;;;-1.83;100.00
59274;BME280;45044;41.572;24.730;2024-01-25T00:05:43;91584.41;;;-1.78;100.00
59274;BME280;45044;41.572;24.730;2024-01-25T00:08:11;91585.25;;;-1.69;100.00
59274;BME280;45044;41.572;24.730;2024-01-25T00:10:37;91577.81;;;-1.85;100.00
59274;BME280;45044;41.572;24.730;2024-01-25T00:13:04;91596.22;;;-1.77;100.00
59274;BME280;45044;41.572;24.730;2024-01-25T00:15:31;91598.31;;;-1.65;100.00
59274;BME280;45044;41.572;24.730;2024-01-25T00:17:58;91590.28;;;-1.64;100.00
59274;BME280;45044;41.572;24.730;2024-01-25T00:20:25;91608.06;;;-1.62;100.00
59274;BME280;45044;41.572;24.730;2024-01-25T00:22:51;91599.13;;;-1.93;100.00
59274;BME280;45044;41.572;24.730;2024-01-25T00:25:18;91593.38;;;-1.90;100.00
59274;BME280;45044;41.572;24.730;2024-01-25T00:27:45;91592.41;;;-1.66;100.00
59274;BME280;45044;41.572;24.730;2024-01-25T00:30:12;91584.34;;;-1.50;100.00
59274;BME280;45044;41.572;24.730;2024-01-25T00:32:38;91586.06;;;-1.23;100.00
59274;BME280;45044;41.572;24.730;2024-01-25T00:35:05;91589.53;;;-1.04;100.00
59274;BME280;45044;41.572;24.730;2024-01-25T00:37:33;91586.34;;;-1.61;100.00
59274;BME280;45044;41.572;24.730;2024-01-25T00:40:00;91590.84;;;-1.67;100.00
59274;BME280;45044;41.572;24.730;2024-01-25T00:42:28;91591.81;;;-1.63;100.00
59274;BME280;45044;41.572;24.730;2024-01-25T00:44:55;91572.69;;;-1.48;100.00
59274;BME280;45044;41.572;24.730;2024-01-25T00:47:22;91562.75;;;-1.54;100.00
59274;BME280;45044;41.572;24.730;2024-01-25T00:49:49;91559.25;;;-1.36;100.00
59274;BME280;45044;41.572;24.730;2024-01-25T00:52:16;91557.69;;;-1.23;100.00
59274;BME280;45044;41.572;24.730;2024-01-25T00:54:43;91547.00;;;-1.30;100.00
59274;BME280;45044;41.572;24.730;2024-01-25T00:57:11;91539.09;;;-1.71;100.00
59274;BME280;45044;41.572;24.730;2024-01-25T00:59:38;91555.56;;;-1.81;100.00
59274;BME280;45044;41.572;24.730;2024-01-25T01:02:05;91566.97;;;-1.59;100.00
59274;BME280;45044;41.572;24.730;2024-01-25T01:04:35;91553.63;;;-1.61;100.00
59274;BME280;45044;41.572;24.730;2024-01-25T01:07:14;91548.94;;;-1.36;100.00
59274;BME280;45044;41.572;24.730;2024-01-25T01:09:41;91556.69;;;-1.36;100.00
59274;BME280;45044;41.572;24.730;2024-01-25T01:12:08;91550.25;;;-1.24;100.00
59274;BME280;45044;41.572;24.730;2024-01-25T01:14:35;91539.56;;;-1.09;100.00
59274;BME280;45044;41.572;24.730;2024-01-25T01:17:01;91539.44;;;-1.03;100.00
59274;BME280;45044;41.572;24.730;2024-01-25T01:19:31;91534.38;;;-0.86;100.00
59274;BME280;45044;41.572;24.730;2024-01-25T01:21:58;91527.41;;;-0.76;100.00
59274;BME280;45044;41.572;24.730;2024-01-25T01:24:26;91531.84;;;-0.77;100.00
59274;BME280;45044;41.572;24.730;2024-01-25T01:26:53;91515.34;;;-0.99;100.00
59274;BME280;45044;41.572;24.730;2024-01-25T01:29:19;91518.28;;;-0.82;100.00
59274;BME280;45044;41.572;24.730;2024-01-25T01:31:46;91509.75;;;-0.92;100.00
59274;BME280;45044;41.572;24.730;2024-01-25T01:34:13;91496.31;;;-1.03;100.00
59274;BME280;45044;41.572;24.730;2024-01-25T01:36:40;91495.19;;;-0.88;100.00
59274;BME280;45044;41.572;24.730;2024-01-25T01:39:07;91497.31;;;-0.90;100.00
59274;BME280;45044;41.572;24.730;2024-01-25T01:41:34;91494.47;;;-0.79;100.00
59274;BME280;45044;41.572;24.730;2024-01-25T01:44:01;91492.03;;;-0.76;100.00
59274;BME280;45044;41.572;24.730;2024-01-25T01:46:34;91487.66;;;-0.75;100.00
59274;BME280;45044;41.572;24.730;2024-01-25T01:49:03;91487.44;;;-0.88;100.00
59274;BME280;45044;41.572;24.730;2024-01-25T01:51:32;91480.50;;;-0.78;100.00
59274;BME280;45044;41.572;24.730;2024-01-25T01:54:01;91472.50;;;-0.68;100.00
59274;BME280;45044;41.572;24.730;2024-01-25T01:56:29;91470.75;;;-0.81;100.00
59274;BME280;45044;41.572;24.730;2024-01-25T01:59:00;91456.59;;;-0.93;100.00
59274;BME280;45044;41.572;24.730;2024-01-25T02:01:28;91465.03;;;-0.69;100.00
59274;BME280;45044;41.572;24.730;2024-01-25T02:03:55;91460.72;;;-0.83;100.00
59274;BME280;45044;41.572;24.730;2024-01-25T02:06:26;91470.63;;;-0.76;100.00
59274;BME280;45044;41.572;24.730;2024-01-25T02:08:53;91472.06;;;-0.52;100.00
59274;BME280;45044;41.572;24.730;2024-01-25T02:11:20;91474.16;;;-0.63;100.00
59274;BME280;45044;41.572;24.730;2024-01-25T02:13:47;91461.06;;;-0.76;100.00
59274;BME280;45044;41.572;24.730;2024-01-25T02:16:16;91460.94;;;-0.62;100.00
59274;BME280;45044;41.572;24.730;2024-01-25T02:18:48;91441.34;;;-0.71;100.00
59274;BME280;45044;41.572;24.730;2024-01-25T02:21:15;91440.91;;;-0.65;100.00
59274;BME280;45044;41.572;24.730;2024-01-25T02:23:42;91425.13;;;-0.54;100.00
59274;BME280;45044;41.572;24.730;2024-01-25T02:26:09;91428.59;;;-0.68;100.00
59274;BME280;45044;41.572;24.730;2024-01-25T02:28:36;91417.16;;;-0.85;100.00
59274;BME280;45044;41.572;24.730;2024-01-25T02:31:03;91428.59;;;-0.68;100.00
59274;BME280;45044;41.572;24.730;2024-01-25T02:33:30;91406.81;;;-0.85;100.00
59274;BME280;45044;41.572;24.730;2024-01-25T02:35:57;91415.47;;;-0.89;100.00
59274;BME280;45044;41.572;24.730;2024-01-25T02:38:24;91401.97;;;-0.77;100.00
59274;BME280;45044;41.572;24.730;2024-01-25T02:40:51;91403.56;;;-1.08;100.00
59274;BME280;45044;41.572;24.730;2024-01-25T02:43:20;91382.47;;;-1.01;100.00
59274;BME280;45044;41.572;24.730;2024-01-25T02:45:47;91368.56;;;-0.82;100.00
59274;BME280;45044;41.572;24.730;2024-01-25T02:48:15;91391.28;;;-0.44;100.00
59274;BME280;45044;41.572;24.730;2024-01-25T02:50:42;91379.25;;;-0.49;100.00
59274;BME280;45044;41.572;24.730;2024-01-25T02:53:09;91391.56;;;-0.45;100.00
59274;BME280;45044;41.572;24.730;2024-01-25T02:55:35;91400.00;;;-0.80;100.00
59274;BME280;45044;41.572;24.730;2024-01-25T02:58:02;91399.94;;;0.22;100.00
59274;BME280;45044;41.572;24.730;2024-01-25T03:00:29;91374.25;;;0.17;100.00
59274;BME280;45044;41.572;24.730;2024-01-25T03:02:56;91385.06;;;-0.07;100.00
59274;BME280;45044;41.572;24.730;2024-01-25T03:05:23;91382.75;;;-0.18;100.00
59274;BME280;45044;41.572;24.730;2024-01-25T03:07:50;91373.78;;;-0.47;100.00
59274;BME280;45044;41.572;24.730;2024-01-25T03:10:17;91361.31;;;-0.45;100.00
59274;BME280;45044;41.572;24.730;2024-01-25T03:12:44;91346.28;;;-0.43;100.00
59274;BME280;45044;41.572;24.730;2024-01-25T03:15:21;91334.28;;;-0.56;100.00
59274;BME280;45044;41.572;24.730;2024-01-25T03:17:48;91327.13;;;-0.59;100.00
59274;BME280;45044;41.572;24.730;2024-01-25T03:20:14;91329.88;;;-0.56;100.00
59274;BME280;45044;41.572;24.730;2024-01-25T03:22:41;91345.34;;;-0.47;100.00
59274;BME280;45044;41.572;24.730;2024-01-25T03:25:08;91331.84;;;-0.26;100.00
59274;BME280;45044;41.572;24.730;2024-01-25T03:27:36;91330.31;;;-0.45;100.00
59274;BME280;45044;41.572;24.730;2024-01-25T03:30:05;91319.25;;;-0.28;100.00
59274;BME280;45044;41.572;24.730;2024-01-25T03:32:33;91311.16;;;-0.08;100.00
59274;BME280;45044;41.572;24.730;2024-01-25T03:35:03;91283.38;;;0.37;100.00
59274;BME280;45044;41.572;24.730;2024-01-25T03:37:30;91297.94;;;0.50;100.00
59274;BME280;45044;41.572;24.730;2024-01-25T03:39:57;91286.72;;;0.37;100.00
59274;BME280;45044;41.572;24.730;2024-01-25T03:42:24;91284.00;;;0.33;100.00
59274;BME280;45044;41.572;24.730;2024-01-25T03:44:51;91296.31;;;0.37;100.00
59274;BME280;45044;41.572;24.730;2024-01-25T03:47:18;91292.19;;;0.83;100.00
59274;BME280;45044;41.572;24.730;2024-01-25T03:49:47;91307.94;;;0.61;100.00
59274;BME280;45044;41.572;24.730;2024-01-25T03:52:14;91288.81;;;0.44;100.00
59274;BME280;45044;41.572;24.730;2024-01-25T03:54:42;91282.16;;;0.73;100.00
59274;BME280;45044;41.572;24.730;2024-01-25T03:57:09;91279.09;;;0.41;100.00
59274;BME280;45044;41.572;24.730;2024-01-25T03:59:35;91279.53;;;0.52;100.00
59274;BME280;45044;41.572;24.730;2024-01-25T04:02:02;91293.56;;;0.42;100.00
59274;BME280;45044;41.572;24.730;2024-01-25T04:04:29;91290.66;;;0.43;100.00
59274;BME280;45044;41.572;24.730;2024-01-25T04:06:56;91300.41;;;0.38;100.00
59274;BME280;45044;41.572;24.730;2024-01-25T04:09:23;91283.81;;;0.39;100.00
59274;BME280;45044;41.572;24.730;2024-01-25T04:11:50;91295.72;;;0.70;100.00
59274;BME280;45044;41.572;24.730;2024-01-25T04:14:16;91266.69;;;1.59;100.00
59274;BME280;45044;41.572;24.730;2024-01-25T04:16:43;91283.03;;;1.93;100.00
59274;BME280;45044;41.572;24.730;2024-01-25T04:19:13;91278.13;;;1.79;100.00
59274;BME280;45044;41.572;24.730;2024-01-25T04:21:40;91249.53;;;1.88;100.00
59274;BME280;45044;41.572;24.730;2024-01-25T04:24:06;91267.19;;;2.07;100.00
59274;BME280;45044;41.572;24.730;2024-01-25T04:26:35;91282.59;;;2.25;100.00
59274;BME280;45044;41.572;24.730;2024-01-25T04:29:01;91279.25;;;2.62;100.00
59274;BME280;45044;41.572;24.730;2024-01-25T04:31:28;91281.88;;;2.99;100.00
59274;BME280;45044;41.572;24.730;2024-01-25T04:33:55;91295.91;;;3.23;100.00
59274;BME280;45044;41.572;24.730;2024-01-25T04:36:22;91299.72;;;3.67;100.00
59274;BME280;45044;41.572;24.730;2024-01-25T04:38:49;91298.06;;;4.04;100.00
59274;BME280;45044;41.572;24.730;2024-01-25T04:41:16;91297.09;;;4.09;100.00
59274;BME280;45044;41.572;24.730;2024-01-25T04:43:43;91307.56;;;4.89;100.00
59274;BME280;45044;41.572;24.730;2024-01-25T04:46:10;91295.31;;;4.90;100.00
59274;BME280;45044;41.572;24.730;2024-01-25T04:48:37;91299.31;;;5.03;100.00
59274;BME280;45044;41.572;24.730;2024-01-25T04:51:04;91313.03;;;5.00;100.00
59274;BME280;45044;41.572;24.730;2024-01-25T04:53:31;91317.09;;;5.34;100.00
59274;BME280;45044;41.572;24.730;2024-01-25T04:55:58;91300.81;;;5.21;100.00
59274;BME280;45044;41.572;24.730;2024-01-25T04:58:26;91311.72;;;5.43;100.00
59274;BME280;45044;41.572;24.730;2024-01-25T05:00:53;91296.75;;;5.39;100.00
59274;BME280;45044;41.572;24.730;2024-01-25T05:03:22;91281.53;;;5.61;100.00
59274;BME280;45044;41.572;24.730;2024-01-25T05:05:50;91276.84;;;5.51;100.00
59274;BME280;45044;41.572;24.730;2024-01-25T05:08:17;91273.44;;;5.47;100.00
59274;BME280;45044;41.572;24.730;2024-01-25T05:10:43;91242.00;;;5.59;100.00
59274;BME280;45044;41.572;24.730;2024-01-25T05:13:10;91272.88;;;5.57;100.00
59274;BME280;45044;41.572;24.730;2024-01-25T05:15:37;91293.84;;;5.81;100.00
59274;BME280;45044;41.572;24.730;2024-01-25T05:18:04;91298.34;;;5.64;100.00
59274;BME280;45044;41.572;24.730;2024-01-25T05:20:32;91294.31;;;5.67;100.00
59274;BME280;45044;41.572;24.730;2024-01-25T05:23:01;91294.59;;;5.81;100.00
59274;BME280;45044;41.572;24.730;2024-01-25T05:25:30;91285.94;;;5.57;100.00
59274;BME280;45044;41.572;24.730;2024-01-25T05:27:57;91265.47;;;5.39;100.00
59274;BME280;45044;41.572;24.730;2024-01-25T05:30:25;91266.00;;;5.49;100.00
59274;BME280;45044;41.572;24.730;2024-01-25T05:32:52;91273.28;;;5.39;100.00
59274;BME280;45044;41.572;24.730;2024-01-25T05:35:21;91262.22;;;5.26;100.00
59274;BME280;45044;41.572;24.730;2024-01-25T05:37:50;91247.00;;;5.29;100.00
59274;BME280;45044;41.572;24.730;2024-01-25T05:40:17;91254.56;;;5.54;100.00
59274;BME280;45044;41.572;24.730;2024-01-25T05:42:44;91251.53;;;5.51;100.00
59274;BME280;45044;41.572;24.730;2024-01-25T05:45:11;91288.25;;;5.62;100.00
59274;BME280;45044;41.572;24.730;2024-01-25T05:47:38;91261.34;;;5.78;100.00
59274;BME280;45044;41.572;24.730;2024-01-25T05:50:06;91275.28;;;5.66;100.00
59274;BME280;45044;41.572;24.730;2024-01-25T05:52:33;91288.25;;;5.62;100.00
59274;BME280;45044;41.572;24.730;2024-01-25T05:55:05;91291.84;;;5.54;100.00
59274;BME280;45044;41.572;24.730;2024-01-25T05:57:37;91288.53;;;5.57;100.00
59274;BME280;45044;41.572;24.730;2024-01-25T06:00:04;91298.84;;;5.70;100.00
59274;BME280;45044;41.572;24.730;2024-01-25T06:02:32;91299.25;;;5.72;100.00
59274;BME280;45044;41.572;24.730;2024-01-25T06:04:58;91315.03;;;5.59;100.00
59274;BME280;45044;41.572;24.730;2024-01-25T06:07:26;91312.16;;;5.65;100.00
59274;BME280;45044;41.572;24.730;2024-01-25T06:09:53;91305.84;;;5.85;100.00
59274;BME280;45044;41.572;24.730;2024-01-25T06:12:20;91295.97;;;5.75;100.00
59274;BME280;45044;41.572;24.730;2024-01-25T06:14:47;91318.59;;;5.91;100.00
59274;BME280;45044;41.572;24.730;2024-01-25T06:17:14;91321.78;;;6.00;100.00
59274;BME280;45044;41.572;24.730;2024-01-25T06:19:41;91324.38;;;6.00;100.00
59274;BME280;45044;41.572;24.730;2024-01-25T06:22:08;91320.56;;;6.14;100.00
59274;BME280;45044;41.572;24.730;2024-01-25T06:24:34;91326.34;;;6.23;100.00
59274;BME280;45044;41.572;24.730;2024-01-25T06:27:02;91315.91;;;6.23;100.00
59274;BME280;45044;41.572;24.730;2024-01-25T06:29:29;91305.94;;;6.29;100.00
59274;BME280;45044;41.572;24.730;2024-01-25T06:31:56;91313.34;;;6.27;100.00
59274;BME280;45044;41.572;24.730;2024-01-25T06:34:23;91311.34;;;6.40;100.00
59274;BME280;45044;41.572;24.730;2024-01-25T06:36:50;91319.69;;;6.49;100.00
59274;BME280;45044;41.572;24.730;2024-01-25T06:39:17;91314.34;;;6.42;100.00
59274;BME280;45044;41.572;24.730;2024-01-25T06:41:44;91341.16;;;6.39;100.00
59274;BME280;45044;41.572;24.730;2024-01-25T06:44:11;91320.50;;;6.30;100.00
59274;BME280;45044;41.572;24.730;2024-01-25T06:46:37;91334.78;;;6.36;100.00
59274;BME280;45044;41.572;24.730;2024-01-25T06:49:05;91331.34;;;6.32;100.00
59274;BME280;45044;41.572;24.730;2024-01-25T06:51:33;91325.78;;;6.33;100.00
59274;BME280;45044;41.572;24.730;2024-01-25T06:54:00;91325.00;;;6.33;100.00
59274;BME280;45044;41.572;24.730;2024-01-25T06:56:27;91323.97;;;6.57;100.00
59274;BME280;45044;41.572;24.730;2024-01-25T06:58:54;91323.91;;;7.28;100.00
59274;BME280;45044;41.572;24.730;2024-01-25T07:01:21;91331.09;;;7.07;100.00
59274;BME280;45044;41.572;24.730;2024-01-25T07:03:49;91314.22;;;6.78;100.00
59274;BME280;45044;41.572;24.730;2024-01-25T07:06:18;91313.09;;;7.02;100.00
59274;BME280;45044;41.572;24.730;2024-01-25T07:08:45;91305.03;;;8.38;100.00
59274;BME280;45044;41.572;24.730;2024-01-25T07:11:12;91301.13;;;9.57;100.00
59274;BME280;45044;41.572;24.730;2024-01-25T07:13:41;91286.59;;;9.78;100.00
59274;BME280;45044;41.572;24.730;2024-01-25T07:16:08;91298.38;;;10.10;99.54
59274;BME280;45044;41.572;24.730;2024-01-25T07:18:35;91290.69;;;11.01;84.40
59274;BME280;45044;41.572;24.730;2024-01-25T07:21:02;91294.38;;;11.69;76.81
59274;BME280;45044;41.572;24.730;2024-01-25T07:23:30;91306.47;;;11.34;76.50
59274;BME280;45044;41.572;24.730;2024-01-25T07:25:56;91277.59;;;12.34;70.15
59274;BME280;45044;41.572;24.730;2024-01-25T07:28:23;91294.88;;;12.43;68.79
59274;BME280;45044;41.572;24.730;2024-01-25T07:30:52;91287.16;;;12.74;62.68
59274;BME280;45044;41.572;24.730;2024-01-25T07:33:19;91295.97;;;13.94;58.42
59274;BME280;45044;41.572;24.730;2024-01-25T07:35:46;91286.47;;;14.00;56.95
59274;BME280;45044;41.572;24.730;2024-01-25T07:38:12;91280.81;;;15.40;53.88
59274;BME280;45044;41.572;24.730;2024-01-25T07:40:39;91269.94;;;15.79;53.43
59274;BME280;45044;41.572;24.730;2024-01-25T07:43:06;91265.13;;;16.72;50.63
59274;BME280;45044;41.572;24.730;2024-01-25T07:45:33;91255.78;;;16.63;51.01
59274;BME280;45044;41.572;24.730;2024-01-25T07:48:00;91272.34;;;17.55;48.84
59274;BME280;45044;41.572;24.730;2024-01-25T07:50:40;91264.25;;;18.61;44.88
59274;BME280;45044;41.572;24.730;2024-01-25T07:53:09;91278.59;;;17.78;44.62
59274;BME280;45044;41.572;24.730;2024-01-25T07:55:38;91288.97;;;17.26;46.13
59274;BME280;45044;41.572;24.730;2024-01-25T07:58:05;91281.88;;;17.02;43.99
59274;BME280;45044;41.572;24.730;2024-01-25T08:00:32;91279.38;;;17.62;42.92
59274;BME280;45044;41.572;24.730;2024-01-25T08:02:59;91254.66;;;17.48;42.62
59274;BME280;45044;41.572;24.730;2024-01-25T08:05:26;91231.75;;;16.71;40.30
59274;BME280;45044;41.572;24.730;2024-01-25T08:08:06;91256.09;;;13.85;41.43
59274;BME280;45044;41.572;24.730;2024-01-25T08:10:34;91210.88;;;12.94;41.72
59274;BME280;45044;41.572;24.730;2024-01-25T08:13:01;91247.44;;;12.96;40.10
59274;BME280;45044;41.572;24.730;2024-01-25T08:15:33;91246.84;;;14.00;38.74
59274;BME280;45044;41.572;24.730;2024-01-25T08:18:00;91258.25;;;14.80;38.80
59274;BME280;45044;41.572;24.730;2024-01-25T08:20:27;91268.19;;;14.45;37.92
59274;BME280;45044;41.572;24.730;2024-01-25T08:22:55;91269.47;;;14.92;38.17
59274;BME280;45044;41.572;24.730;2024-01-25T08:25:22;91257.50;;;14.80;38.73
59274;BME280;45044;41.572;24.730;2024-01-25T08:27:49;91264.22;;;15.36;38.66
59274;BME280;45044;41.572;24.730;2024-01-25T08:30:16;91258.75;;;16.49;37.87
59274;BME280;45044;41.572;24.730;2024-01-25T08:32:43;91264.47;;;17.34;36.88
59274;BME280;45044;41.572;24.730;2024-01-25T08:35:10;91254.31;;;16.05;36.37
59274;BME280;45044;41.572;24.730;2024-01-25T08:37:37;91245.75;;;15.08;37.09
59274;BME280;45044;41.572;24.730;2024-01-25T08:40:05;91253.31;;;14.55;38.91
59274;BME280;45044;41.572;24.730;2024-01-25T08:42:36;91236.22;;;15.15;37.90
59274;BME280;45044;41.572;24.730;2024-01-25T08:45:03;91241.06;;;16.05;36.94
59274;BME280;45044;41.572;24.730;2024-01-25T08:47:32;91251.69;;;17.12;36.05
59274;BME280;45044;41.572;24.730;2024-01-25T08:49:59;91252.56;;;16.72;36.94
59274;BME280;45044;41.572;24.730;2024-01-25T08:52:27;91240.97;;;17.33;36.00
59274;BME280;45044;41.572;24.730;2024-01-25T08:54:54;91226.19;;;16.11;36.42
59274;BME280;45044;41.572;24.730;2024-01-25T08:57:20;91232.94;;;17.20;35.63
59274;BME280;45044;41.572;24.730;2024-01-25T08:59:47;91226.91;;;17.49;35.81
59274;BME280;45044;41.572;24.730;2024-01-25T09:02:15;91232.44;;;16.92;36.83
59274;BME280;45044;41.572;24.730;2024-01-25T09:04:42;91222.91;;;17.87;35.86
59274;BME280;45044;41.572;24.730;2024-01-25T09:07:11;91221.69;;;17.45;35.33
59274;BME280;45044;41.572;24.730;2024-01-25T09:09:38;91220.53;;;15.68;35.54
59274;BME280;45044;41.572;24.730;2024-01-25T09:12:06;91238.41;;;17.29;36.31
59274;BME280;45044;41.572;24.730;2024-01-25T09:14:34;91232.38;;;16.04;35.41
59274;BME280;45044;41.572;24.730;2024-01-25T09:17:02;91238.06;;;17.27;36.00
59274;BME280;45044;41.572;24.730;2024-01-25T09:19:30;91228.25;;;18.69;33.64
59274;BME280;45044;41.572;24.730;2024-01-25T09:21:57;91242.13;;;15.47;37.08
59274;BME280;45044;41.572;24.730;2024-01-25T09:24:27;91236.09;;;17.15;36.28
59274;BME280;45044;41.572;24.730;2024-01-25T09:26:54;91233.50;;;17.44;37.09
59274;BME280;45044;41.572;24.730;2024-01-25T09:29:22;91248.47;;;18.92;35.88
59274;BME280;45044;41.572;24.730;2024-01-25T09:31:49;91262.41;;;18.58;35.78
59274;BME280;45044;41.572;24.730;2024-01-25T09:34:16;91259.44;;;18.42;33.30
59274;BME280;45044;41.572;24.730;2024-01-25T09:36:45;91259.75;;;18.31;35.86
59274;BME280;45044;41.572;24.730;2024-01-25T09:39:12;91257.59;;;17.96;33.86
59274;BME280;45044;41.572;24.730;2024-01-25T09:41:40;91268.72;;;16.61;34.82
59274;BME280;45044;41.572;24.730;2024-01-25T09:44:11;91257.00;;;16.79;35.16
59274;BME280;45044;41.572;24.730;2024-01-25T09:46:38;91262.94;;;16.30;34.73
59274;BME280;45044;41.572;24.730;2024-01-25T09:49:07;91256.84;;;15.00;35.91
59274;BME280;45044;41.572;24.730;2024-01-25T09:51:39;91254.69;;;15.83;35.12
59274;BME280;45044;41.572;24.730;2024-01-25T09:54:06;91248.09;;;15.51;33.53
59274;BME280;45044;41.572;24.730;2024-01-25T09:56:34;91266.56;;;15.54;33.73
59274;BME280;45044;41.572;24.730;2024-01-25T09:59:01;91252.59;;;14.82;34.01
59274;BME280;45044;41.572;24.730;2024-01-25T10:01:28;91244.00;;;14.46;34.31
59274;BME280;45044;41.572;24.730;2024-01-25T10:03:55;91242.03;;;13.57;35.61
59274;BME280;45044;41.572;24.730;2024-01-25T10:06:23;91241.63;;;13.12;35.09
59274;BME280;45044;41.572;24.730;2024-01-25T10:08:52;91241.59;;;12.70;36.53
59274;BME280;45044;41.572;24.730;2024-01-25T10:11:18;91247.19;;;13.25;36.73
59274;BME280;45044;41.572;24.730;2024-01-25T10:13:48;91241.16;;;12.18;36.15
59274;BME280;45044;41.572;24.730;2024-01-25T10:16:18;91231.19;;;11.58;34.96
59274;BME280;45044;41.572;24.730;2024-01-25T10:18:47;91227.91;;;12.29;34.11
59274;BME280;45044;41.572;24.730;2024-01-25T10:21:15;91220.09;;;12.11;35.38
59274;BME280;45044;41.572;24.730;2024-01-25T10:23:45;91222.25;;;12.88;36.17
59274;BME280;45044;41.572;24.730;2024-01-25T10:26:16;91235.06;;;12.86;34.92
59274;BME280;45044;41.572;24.730;2024-01-25T10:28:52;91217.63;;;11.64;38.02
59274;BME280;45044;41.572;24.730;2024-01-25T10:31:27;91224.19;;;10.75;35.37
59274;BME280;45044;41.572;24.730;2024-01-25T10:33:56;91241.44;;;10.94;35.67
59274;BME280;45044;41.572;24.730;2024-01-25T10:36:26;91256.13;;;11.06;36.93
59274;BME280;45044;41.572;24.730;2024-01-25T10:38:54;91230.56;;;11.18;36.48
59274;BME280;45044;41.572;24.730;2024-01-25T10:41:23;91240.63;;;10.28;37.12
59274;BME280;45044;41.572;24.730;2024-01-25T10:43:54;91245.22;;;10.60;37.56
59274;BME280;45044;41.572;24.730;2024-01-25T10:46:21;91222.31;;;10.86;38.62
59274;BME280;45044;41.572;24.730;2024-01-25T10:48:48;91234.69;;;10.93;37.66
59274;BME280;45044;41.572;24.730;2024-01-25T10:51:16;91230.59;;;10.74;37.47
59274;BME280;45044;41.572;24.730;2024-01-25T10:53:45;91235.72;;;10.08;37.07
59274;BME280;45044;41.572;24.730;2024-01-25T10:56:13;91234.91;;;9.93;36.72
59274;BME280;45044;41.572;24.730;2024-01-25T10:58:41;91228.88;;;9.85;36.28
59274;BME280;45044;41.572;24.730;2024-01-25T11:01:09;91221.75;;;9.86;36.29
59274;BME280;45044;41.572;24.730;2024-01-25T11:03:43;91224.41;;;9.89;36.88
59274;BME280;45044;41.572;24.730;2024-01-25T11:06:12;91231.84;;;9.80;37.51
59274;BME280;45044;41.572;24.730;2024-01-25T11:08:40;91243.38;;;9.50;37.14
59274;BME280;45044;41.572;24.730;2024-01-25T11:11:11;91245.69;;;9.69;37.40
59274;BME280;45044;41.572;24.730;2024-01-25T11:13:40;91234.75;;;9.53;36.96
59274;BME280;45044;41.572;24.730;2024-01-25T11:16:17;91230.72;;;9.74;37.65
59274;BME280;45044;41.572;24.730;2024-01-25T11:18:55;91223.56;;;9.70;37.98
59274;BME280;45044;41.572;24.730;2024-01-25T11:21:26;91193.31;;;10.17;39.30
59274;BME280;45044;41.572;24.730;2024-01-25T11:24:00;91182.44;;;10.18;38.29
59274;BME280;45044;41.572;24.730;2024-01-25T11:26:28;91207.00;;;9.44;38.17
59274;BME280;45044;41.572;24.730;2024-01-25T11:28:55;91226.63;;;9.87;40.81
59274;BME280;45044;41.572;24.730;2024-01-25T11:31:23;91229.75;;;10.33;40.85
59274;BME280;45044;41.572;24.730;2024-01-25T11:33:57;91239.56;;;10.51;38.66
59274;BME280;45044;41.572;24.730;2024-01-25T11:36:24;91236.47;;;11.58;40.86
59274;BME280;45044;41.572;24.730;2024-01-25T11:38:51;91232.41;;;11.24;39.30
59274;BME280;45044;41.572;24.730;2024-01-25T11:41:19;91212.25;;;11.96;38.93
59274;BME280;45044;41.572;24.730;2024-01-25T11:43:48;91219.81;;;11.87;37.56
59274;BME280;45044;41.572;24.730;2024-01-25T11:46:16;91210.94;;;11.44;38.53
59274;BME280;45044;41.572;24.730;2024-01-25T11:48:43;91214.69;;;12.37;37.76
59274;BME280;45044;41.572;24.730;2024-01-25T11:51:10;91217.47;;;12.11;37.47
59274;BME280;45044;41.572;24.730;2024-01-25T11:53:38;91220.16;;;12.68;37.42
59274;BME280;45044;41.572;24.730;2024-01-25T11:56:07;91238.94;;;12.02;36.69
59274;BME280;45044;41.572;24.730;2024-01-25T11:58:39;91240.22;;;11.65;38.38
59274;BME280;45044;41.572;24.730;2024-01-25T12:01:08;91227.19;;;11.02;40.79
59274;BME280;45044;41.572;24.730;2024-01-25T12:03:37;91215.53;;;10.49;43.21
59274;BME280;45044;41.572;24.730;2024-01-25T12:06:05;91225.31;;;10.77;43.01
59274;BME280;45044;41.572;24.730;2024-01-25T12:08:32;91224.53;;;10.44;43.35
59274;BME280;45044;41.572;24.730;2024-01-25T12:11:10;91230.34;;;9.75;43.94
59274;BME280;45044;41.572;24.730;2024-01-25T12:13:41;91235.41;;;9.35;45.65
59274;BME280;45044;41.572;24.730;2024-01-25T12:16:09;91231.31;;;8.78;46.39
59274;BME280;45044;41.572;24.730;2024-01-25T12:18:37;91233.50;;;8.68;44.53
59274;BME280;45044;41.572;24.730;2024-01-25T12:21:05;91238.84;;;8.41;46.27
59274;BME280;45044;41.572;24.730;2024-01-25T12:23:39;91236.88;;;8.31;45.77
59274;BME280;45044;41.572;24.730;2024-01-25T12:26:08;91205.22;;;8.01;48.17
59274;BME280;45044;41.572;24.730;2024-01-25T12:28:38;91235.34;;;8.26;47.55
59274;BME280;45044;41.572;24.730;2024-01-25T12:31:05;91221.13;;;8.27;46.32
59274;BME280;45044;41.572;24.730;2024-01-25T12:33:34;91230.69;;;8.08;46.46
59274;BME280;45044;41.572;24.730;2024-01-25T12:36:02;91251.84;;;7.92;46.43
59274;BME280;45044;41.572;24.730;2024-01-25T12:38:30;91246.69;;;7.99;48.09
59274;BME280;45044;41.572;24.730;2024-01-25T12:41:00;91247.09;;;8.05;47.20
59274;BME280;45044;41.572;24.730;2024-01-25T12:43:29;91255.94;;;7.59;48.76
59274;BME280;45044;41.572;24.730;2024-01-25T12:45:56;91257.56;;;7.40;47.29
59274;BME280;45044;41.572;24.730;2024-01-25T12:48:34;91260.16;;;7.67;50.28
59274;BME280;45044;41.572;24.730;2024-01-25T12:51:01;91238.44;;;7.63;47.45